Terminal Aerodrome Forecast
Issued by NWS Twin Cities, MN

Home | Current Version | Previous Version | Text Only | Print | Product List | Glossary Off
Versions: 1 2 3 4 5 6 7 8 9 10 11 12 13 14 15 16 17 18 19 20 21 22 23 24 25 26 27

000
FTUS43 KMPX 130500 RRA
TAFMSP
TAF
KMSP 130541Z 1306/1412 04010KT P6SM OVC012
     FM130900 02009KT P6SM OVC009
     FM131400 36015G23KT P6SM OVC015
     FM131900 35021G30KT P6SM BKN025
     FM140300 35018G25KT P6SM BKN035
     FM140800 35014G19KT P6SM BKN035=

USA.gov is the U.S. government's official web portal to all federal, state and local government web resources and services.